createdAt,value
2024-01-28T00:00:22.474Z,13.77
2024-01-28T00:02:49.103Z,14.05
2024-01-28T00:05:15.710Z,14.48
2024-01-28T00:07:42.178Z,15.45
2024-01-28T00:10:08.913Z,14.32
2024-01-28T00:12:35.537Z,14.30
2024-01-28T00:15:02.269Z,14.07
2024-01-28T00:17:28.950Z,13.90
2024-01-28T00:19:55.662Z,14.27
2024-01-28T00:22:22.268Z,14.35
2024-01-28T00:24:48.721Z,14.10
2024-01-28T00:27:15.225Z,14.57
2024-01-28T00:29:41.733Z,14.35
2024-01-28T00:32:08.169Z,15.43
2024-01-28T00:34:34.782Z,16.02
2024-01-28T00:37:03.701Z,14.17
2024-01-28T00:39:31.155Z,13.70
2024-01-28T00:41:57.772Z,14.27
2024-01-28T00:44:24.232Z,13.35
2024-01-28T00:46:50.650Z,12.93
2024-01-28T00:49:17.268Z,13.13
2024-01-28T00:51:43.882Z,12.85
2024-01-28T00:54:10.460Z,13.35
2024-01-28T00:56:36.893Z,14.35
2024-01-28T00:59:03.410Z,13.80
2024-01-28T01:01:29.794Z,13.63
2024-01-28T01:03:56.406Z,13.55
2024-01-28T01:06:23.150Z,12.50
2024-01-28T01:08:49.582Z,13.77
2024-01-28T01:11:16.141Z,13.80
2024-01-28T01:13:42.664Z,13.17
2024-01-28T01:16:09.150Z,13.20
2024-01-28T01:18:35.694Z,14.02
2024-01-28T01:21:02.678Z,13.80
2024-01-28T01:23:30.832Z,13.40
2024-01-28T01:25:57.306Z,14.77
2024-01-28T01:28:25.500Z,13.75
2024-01-28T01:30:52.034Z,13.68
2024-01-28T01:33:19.157Z,12.85
2024-01-28T01:35:46.209Z,14.50
2024-01-28T01:38:12.688Z,13.90
2024-01-28T01:40:39.154Z,13.60
2024-01-28T01:43:12.125Z,12.95
2024-01-28T01:45:42.656Z,13.55
2024-01-28T01:48:11.526Z,13.18
2024-01-28T01:50:38.595Z,13.20
2024-01-28T01:53:05.966Z,14.57
2024-01-28T01:55:35.788Z,12.70
2024-01-28T01:58:02.997Z,12.95
2024-01-28T02:00:30.082Z,13.38
2024-01-28T02:02:56.620Z,13.70
2024-01-28T02:05:23.189Z,13.48
2024-01-28T02:07:50.530Z,13.43
2024-01-28T02:10:17.277Z,14.50
2024-01-28T02:12:50.806Z,14.73
2024-01-28T02:15:17.544Z,15.33
2024-01-28T02:17:44.414Z,14.63
2024-01-28T02:20:11.394Z,14.95
2024-01-28T02:22:37.885Z,12.90
2024-01-28T02:25:04.599Z,13.32
2024-01-28T02:27:31.542Z,13.50
2024-01-28T02:29:57.937Z,14.00
2024-01-28T02:32:24.545Z,13.10
2024-01-28T02:34:51.190Z,12.27
2024-01-28T02:37:17.663Z,14.40
2024-01-28T02:39:44.383Z,14.23
2024-01-28T02:42:10.904Z,13.23
2024-01-28T02:44:37.360Z,14.07
2024-01-28T02:47:03.888Z,13.95
2024-01-28T02:49:30.509Z,13.18
2024-01-28T02:51:57.086Z,13.53
2024-01-28T02:54:24.509Z,13.75
2024-01-28T02:56:52.995Z,14.07
2024-01-28T02:59:19.338Z,13.05
2024-01-28T03:01:49.293Z,13.23
2024-01-28T03:04:16.426Z,13.47
2024-01-28T03:06:43.696Z,13.40
2024-01-28T03:09:10.369Z,12.95
2024-01-28T03:11:36.848Z,12.60
2024-01-28T03:14:03.293Z,13.75
2024-01-28T03:16:29.820Z,12.33
2024-01-28T03:18:56.497Z,13.32
2024-01-28T03:21:23.333Z,13.02
2024-01-28T03:23:50.068Z,13.43
2024-01-28T03:26:16.515Z,12.90
2024-01-28T03:28:43.747Z,13.40
2024-01-28T03:31:10.490Z,12.45
2024-01-28T03:33:37.104Z,12.70
2024-01-28T03:36:03.732Z,13.05
2024-01-28T03:38:30.237Z,13.48
2024-01-28T03:40:56.679Z,13.80
2024-01-28T03:43:23.278Z,12.70
2024-01-28T03:45:49.952Z,13.13
2024-01-28T03:48:16.630Z,12.60
2024-01-28T03:50:43.202Z,13.70
2024-01-28T03:53:09.679Z,12.90
2024-01-28T03:55:36.196Z,12.43
2024-01-28T03:58:03.157Z,13.02
2024-01-28T04:00:32.535Z,12.65
2024-01-28T04:02:59.255Z,12.60
2024-01-28T04:05:25.719Z,14.30
2024-01-28T04:07:52.142Z,13.27
2024-01-28T04:10:18.597Z,12.52
2024-01-28T04:12:45.273Z,12.40
2024-01-28T04:15:11.894Z,13.15
2024-01-28T04:17:38.498Z,11.63
2024-01-28T04:20:05.439Z,11.85
2024-01-28T04:22:32.075Z,10.40
2024-01-28T04:24:58.594Z,10.77
2024-01-28T04:27:25.732Z,10.95
2024-01-28T04:29:52.240Z,11.10
2024-01-28T04:32:18.772Z,12.45
2024-01-28T04:34:45.443Z,11.40
2024-01-28T04:37:11.987Z,11.10
2024-01-28T04:39:39.027Z,10.32
2024-01-28T04:42:05.624Z,10.67
2024-01-28T04:44:32.468Z,11.15
2024-01-28T04:46:59.128Z,11.05
2024-01-28T04:49:25.743Z,10.80
2024-01-28T04:51:52.657Z,10.60
2024-01-28T04:54:19.251Z,10.53
2024-01-28T04:56:45.842Z,10.63
2024-01-28T04:59:12.239Z,10.25
2024-01-28T05:01:38.991Z,10.43
2024-01-28T05:04:05.835Z,10.52
2024-01-28T05:06:37.106Z,11.03
2024-01-28T05:09:04.804Z,10.48
2024-01-28T05:11:32.298Z,9.95
2024-01-28T05:13:59.321Z,10.95
2024-01-28T05:16:26.508Z,10.13
2024-01-28T05:18:53.215Z,10.40
2024-01-28T05:21:19.971Z,9.88
2024-01-28T05:23:49.604Z,10.57
2024-01-28T05:26:16.154Z,10.82
2024-01-28T05:28:42.796Z,10.25
2024-01-28T05:31:09.590Z,10.00
2024-01-28T05:33:38.930Z,10.40
2024-01-28T05:36:11.504Z,10.20
2024-01-28T05:38:37.884Z,10.05
2024-01-28T05:41:04.355Z,10.10
2024-01-28T05:43:32.314Z,10.47
2024-01-28T05:45:58.855Z,9.40
2024-01-28T05:48:25.508Z,9.02
2024-01-28T05:50:52.048Z,9.55
2024-01-28T05:53:18.541Z,9.48
2024-01-28T05:55:45.114Z,9.93
2024-01-28T05:58:11.624Z,9.43
2024-01-28T06:00:38.253Z,10.30
2024-01-28T06:03:07.745Z,8.88
2024-01-28T06:05:34.269Z,9.32
2024-01-28T06:08:01.752Z,8.73
2024-01-28T06:10:28.164Z,9.55
2024-01-28T06:12:54.652Z,9.40
2024-01-28T06:15:21.316Z,9.82
2024-01-28T06:17:47.853Z,9.35
2024-01-28T06:20:14.460Z,9.03
2024-01-28T06:22:40.952Z,9.52
2024-01-28T06:25:08.285Z,9.80
2024-01-28T06:27:34.798Z,8.85
2024-01-28T06:30:01.508Z,9.63
2024-01-28T06:32:28.149Z,9.40
2024-01-28T06:34:54.948Z,9.32
2024-01-28T06:37:21.549Z,9.27
2024-01-28T06:39:53.102Z,8.93
2024-01-28T06:42:20.227Z,9.40
2024-01-28T06:44:47.761Z,8.80
2024-01-28T06:47:14.243Z,9.20
2024-01-28T06:49:42.432Z,9.32
2024-01-28T06:52:09.023Z,9.00
2024-01-28T06:54:35.609Z,9.27
2024-01-28T06:57:02.156Z,10.37
2024-01-28T06:59:28.602Z,9.48
2024-01-28T07:01:55.373Z,9.48
2024-01-28T07:04:22.011Z,9.13
2024-01-28T07:06:48.648Z,9.50
2024-01-28T07:09:17.071Z,8.93
2024-01-28T07:11:43.481Z,8.82
2024-01-28T07:14:10.078Z,9.13
2024-01-28T07:16:37.871Z,9.18
2024-01-28T07:19:05.542Z,9.02
2024-01-28T07:21:32.343Z,9.53
2024-01-28T07:23:58.859Z,9.65
2024-01-28T07:26:26.828Z,9.48
2024-01-28T07:28:53.390Z,9.27
2024-01-28T07:31:20.218Z,9.40
2024-01-28T07:33:46.948Z,9.40
2024-01-28T07:36:13.710Z,10.38
2024-01-28T07:38:40.233Z,9.50
2024-01-28T07:41:07.193Z,9.27
2024-01-28T07:43:33.789Z,9.35
2024-01-28T07:46:00.454Z,9.80
2024-01-28T07:48:27.026Z,10.20
2024-01-28T07:50:54.308Z,10.07
2024-01-28T07:53:20.728Z,9.77
2024-01-28T07:55:47.236Z,10.55
2024-01-28T07:58:13.618Z,10.40
2024-01-28T08:00:40.168Z,10.65
2024-01-28T08:03:06.836Z,10.32
2024-01-28T08:05:33.365Z,11.02
2024-01-28T08:07:59.895Z,11.18
2024-01-28T08:10:26.409Z,10.70
2024-01-28T08:12:53.041Z,11.20
2024-01-28T08:15:21.167Z,11.02
2024-01-28T08:17:50.302Z,11.82
2024-01-28T08:20:17.954Z,10.55
2024-01-28T08:22:44.514Z,16.70
2024-01-28T08:25:13.189Z,28.42
2024-01-28T08:27:40.113Z,13.02
2024-01-28T08:30:09.363Z,12.25
2024-01-28T08:32:35.935Z,13.55
2024-01-28T08:35:02.599Z,12.33
2024-01-28T08:37:29.472Z,11.82
2024-01-28T08:39:55.928Z,12.48
2024-01-28T08:42:23.760Z,11.55
2024-01-28T08:44:50.209Z,12.18
2024-01-28T08:47:16.625Z,12.03
2024-01-28T08:49:43.248Z,12.38
2024-01-28T08:52:09.737Z,12.57
2024-01-28T08:54:37.976Z,12.02
2024-01-28T08:57:05.440Z,12.63
2024-01-28T08:59:31.857Z,13.43
2024-01-28T09:01:59.026Z,13.13
2024-01-28T09:04:25.654Z,13.77
2024-01-28T09:06:52.186Z,14.75
2024-01-28T09:09:18.828Z,13.85
2024-01-28T09:11:45.663Z,13.68
2024-01-28T09:14:12.600Z,14.18
2024-01-28T09:16:39.070Z,13.40
2024-01-28T09:19:05.924Z,13.25
2024-01-28T09:21:32.712Z,13.80
2024-01-28T09:24:02.153Z,13.25
2024-01-28T09:26:28.557Z,13.75
2024-01-28T09:28:55.072Z,13.45
2024-01-28T09:31:21.674Z,14.73
2024-01-28T09:33:48.383Z,16.25
2024-01-28T09:36:14.966Z,16.10
2024-01-28T09:38:44.427Z,18.15
2024-01-28T09:41:15.757Z,16.38
2024-01-28T09:43:43.010Z,13.50
2024-01-28T09:46:09.637Z,14.60
2024-01-28T09:48:36.455Z,17.00
2024-01-28T09:51:03.118Z,14.88
2024-01-28T09:53:29.594Z,15.07
2024-01-28T09:55:56.375Z,14.27
2024-01-28T09:58:23.507Z,14.65
2024-01-28T10:00:49.991Z,15.13
2024-01-28T10:03:16.744Z,15.80
2024-01-28T10:05:43.354Z,15.70
2024-01-28T10:08:10.535Z,16.52
2024-01-28T10:10:37.370Z,15.75
2024-01-28T10:13:04.403Z,13.25
2024-01-28T10:15:32.174Z,11.85
2024-01-28T10:17:58.947Z,12.27
2024-01-28T10:20:26.290Z,12.23
2024-01-28T10:22:53.999Z,13.73
2024-01-28T10:25:21.072Z,15.20
2024-01-28T10:27:48.312Z,16.13
2024-01-28T10:30:15.947Z,15.48
2024-01-28T10:32:43.064Z,17.48
2024-01-28T10:35:13.596Z,18.52
2024-01-28T10:37:40.641Z,17.10
2024-01-28T10:40:08.835Z,18.10
2024-01-28T10:42:41.967Z,18.27
2024-01-28T10:45:12.994Z,18.35
2024-01-28T10:47:45.336Z,17.75
2024-01-28T10:50:13.163Z,18.40
2024-01-28T10:52:40.138Z,17.55
2024-01-28T10:55:07.020Z,17.50
2024-01-28T10:57:34.086Z,17.95
2024-01-28T11:00:01.005Z,17.40
2024-01-28T11:02:31.359Z,17.60
2024-01-28T11:04:59.495Z,18.50
2024-01-28T11:07:26.236Z,18.25
2024-01-28T11:09:54.151Z,17.02
2024-01-28T11:12:21.372Z,18.20
2024-01-28T11:14:48.133Z,18.55
2024-01-28T11:17:14.769Z,17.65
2024-01-28T11:19:41.326Z,18.48
2024-01-28T11:22:13.549Z,17.90
2024-01-28T11:24:49.781Z,18.10
2024-01-28T11:27:16.694Z,18.33
2024-01-28T11:29:44.031Z,18.27
2024-01-28T11:32:10.757Z,18.42
2024-01-28T11:34:37.435Z,18.98
2024-01-28T11:37:05.288Z,18.75
2024-01-28T11:39:41.557Z,19.10
2024-01-28T11:42:08.347Z,18.42
2024-01-28T11:44:41.047Z,18.70
2024-01-28T11:47:11.528Z,19.35
2024-01-28T11:49:37.922Z,18.52
2024-01-28T11:52:06.821Z,18.98
2024-01-28T11:54:33.355Z,18.15
2024-01-28T11:57:01.489Z,18.95
2024-01-28T11:59:28.028Z,18.65
2024-01-28T12:01:54.563Z,18.85
2024-01-28T12:04:21.337Z,19.10
2024-01-28T12:06:47.874Z,19.10
2024-01-28T12:09:14.765Z,19.38
2024-01-28T12:11:41.200Z,18.92
2024-01-28T12:14:08.735Z,18.85
2024-01-28T12:16:36.013Z,19.92
2024-01-28T12:19:02.688Z,19.42
2024-01-28T12:21:29.451Z,19.98
2024-01-28T12:24:06.078Z,19.90
2024-01-28T12:26:36.706Z,20.23
2024-01-28T12:29:03.794Z,19.63
2024-01-28T12:31:32.469Z,19.67
2024-01-28T12:33:59.326Z,19.98
2024-01-28T12:36:25.993Z,20.02
2024-01-28T12:38:52.637Z,19.98
2024-01-28T12:41:19.823Z,20.83
2024-01-28T12:43:52.889Z,19.43
2024-01-28T12:46:20.115Z,20.08
2024-01-28T12:48:46.669Z,20.10
2024-01-28T12:51:13.871Z,19.77
2024-01-28T12:53:40.904Z,20.70
2024-01-28T12:56:07.761Z,21.20
2024-01-28T12:58:34.257Z,20.02
2024-01-28T13:01:00.899Z,20.15
2024-01-28T13:03:27.608Z,20.85
2024-01-28T13:05:54.273Z,20.55
2024-01-28T13:08:20.921Z,20.20
2024-01-28T13:10:47.458Z,19.75
2024-01-28T13:13:13.939Z,19.90
2024-01-28T13:15:40.810Z,19.63
2024-01-28T13:18:16.783Z,19.58
2024-01-28T13:20:52.015Z,19.47
2024-01-28T13:23:18.653Z,19.55
2024-01-28T13:25:45.198Z,19.13
2024-01-28T13:28:11.924Z,19.60
2024-01-28T13:30:38.524Z,20.40
2024-01-28T13:33:05.383Z,19.60
2024-01-28T13:35:34.154Z,20.77
2024-01-28T13:38:00.759Z,19.67
2024-01-28T13:40:27.124Z,20.42
2024-01-28T13:42:53.661Z,20.85
2024-01-28T13:45:20.396Z,20.70
2024-01-28T13:47:47.118Z,20.23
2024-01-28T13:50:13.783Z,21.10
2024-01-28T13:52:40.283Z,20.33
2024-01-28T13:55:07.167Z,20.50
2024-01-28T13:57:33.567Z,20.27
2024-01-28T14:00:00.042Z,20.45
2024-01-28T14:02:26.523Z,20.10
2024-01-28T14:04:52.975Z,20.50
2024-01-28T14:07:19.647Z,20.63
2024-01-28T14:09:46.276Z,20.60
2024-01-28T14:12:13.962Z,20.67
2024-01-28T14:14:40.685Z,20.25
2024-01-28T14:17:08.121Z,20.60
2024-01-28T14:19:34.755Z,20.83
2024-01-28T14:22:01.302Z,19.77
2024-01-28T14:24:27.982Z,19.75
2024-01-28T14:26:54.424Z,20.77
2024-01-28T14:29:20.972Z,21.05
2024-01-28T14:31:47.428Z,20.25
2024-01-28T14:34:14.162Z,20.90
2024-01-28T14:36:41.866Z,20.50
2024-01-28T14:39:08.334Z,20.88
2024-01-28T14:41:34.899Z,20.48
2024-01-28T14:44:01.308Z,20.92
2024-01-28T14:46:28.261Z,21.20
2024-01-28T14:48:54.928Z,20.90
2024-01-28T14:51:21.470Z,20.83
2024-01-28T14:53:48.013Z,21.40
2024-01-28T14:56:14.570Z,20.95
2024-01-28T14:58:41.157Z,20.13
2024-01-28T15:01:07.749Z,21.40
2024-01-28T15:03:34.370Z,19.77
2024-01-28T15:06:01.014Z,20.20
2024-01-28T15:08:27.629Z,20.95
2024-01-28T15:10:54.058Z,20.20
2024-01-28T15:13:20.578Z,20.40
2024-01-28T15:15:47.519Z,20.75
2024-01-28T15:18:14.223Z,21.20
2024-01-28T15:20:40.775Z,20.38
2024-01-28T15:23:07.194Z,19.93
2024-01-28T15:25:33.636Z,19.95
2024-01-28T15:28:00.295Z,20.63
2024-01-28T15:30:26.916Z,19.85
2024-01-28T15:32:53.605Z,24.60
2024-01-28T15:35:20.079Z,20.67
2024-01-28T15:37:46.623Z,20.42
2024-01-28T15:40:13.341Z,19.40
2024-01-28T15:42:40.683Z,19.38
2024-01-28T15:45:08.244Z,20.80
2024-01-28T15:47:34.749Z,20.13
2024-01-28T15:50:01.334Z,20.08
2024-01-28T15:52:27.860Z,19.65
2024-01-28T15:54:54.588Z,19.88
2024-01-28T15:57:21.231Z,19.83
2024-01-28T15:59:54.964Z,19.37
2024-01-28T16:02:27.246Z,20.42
2024-01-28T16:04:56.743Z,20.60
2024-01-28T16:07:26.265Z,19.45
2024-01-28T16:09:54.122Z,20.95
2024-01-28T16:12:20.886Z,20.73
2024-01-28T16:14:47.569Z,19.73
2024-01-28T16:17:19.334Z,20.38
2024-01-28T16:19:47.254Z,19.30
2024-01-28T16:22:13.872Z,20.17
2024-01-28T16:24:40.304Z,19.53
2024-01-28T16:27:06.829Z,18.77
2024-01-28T16:29:33.845Z,20.77
2024-01-28T16:32:00.435Z,20.48
2024-01-28T16:34:26.986Z,21.95
2024-01-28T16:36:53.540Z,21.60
2024-01-28T16:39:20.039Z,21.75
2024-01-28T16:41:47.409Z,21.02
2024-01-28T16:44:14.668Z,21.55
2024-01-28T16:46:42.086Z,20.42
2024-01-28T16:49:08.845Z,20.40
2024-01-28T16:51:35.630Z,20.55
2024-01-28T16:54:02.125Z,21.90
2024-01-28T16:56:29.247Z,23.20
2024-01-28T16:58:55.758Z,23.98
2024-01-28T17:01:22.315Z,21.13
2024-01-28T17:03:48.922Z,20.90
2024-01-28T17:06:15.519Z,23.45
2024-01-28T17:08:41.994Z,23.20
2024-01-28T17:11:08.533Z,23.40
2024-01-28T17:13:35.235Z,23.52
2024-01-28T17:16:02.530Z,22.88
2024-01-28T17:18:29.321Z,24.25
2024-01-28T17:20:55.903Z,25.20
2024-01-28T17:23:25.595Z,21.17
2024-01-28T17:25:52.776Z,21.67
2024-01-28T17:28:19.420Z,22.73
2024-01-28T17:30:46.014Z,23.42
2024-01-28T17:33:13.311Z,21.50
2024-01-28T17:35:39.928Z,22.05
2024-01-28T17:38:06.552Z,22.05
2024-01-28T17:40:33.218Z,21.85
2024-01-28T17:42:59.729Z,20.35
2024-01-28T17:45:26.583Z,20.95
2024-01-28T17:47:54.469Z,22.17
2024-01-28T17:50:21.114Z,22.58
2024-01-28T17:52:47.894Z,25.70
2024-01-28T17:55:15.621Z,24.95
2024-01-28T17:57:42.159Z,37.08
2024-01-28T18:00:09.944Z,24.85
2024-01-28T18:02:36.507Z,23.33
2024-01-28T18:05:03.145Z,27.38
2024-01-28T18:07:29.739Z,22.15
2024-01-28T18:09:56.412Z,23.25
2024-01-28T18:12:23.934Z,22.88
2024-01-28T18:14:51.044Z,22.42
2024-01-28T18:17:17.592Z,23.52
2024-01-28T18:19:44.187Z,24.27
2024-01-28T18:22:12.092Z,23.20
2024-01-28T18:24:38.673Z,22.45
2024-01-28T18:27:05.497Z,22.25
2024-01-28T18:29:32.867Z,22.98
2024-01-28T18:31:59.438Z,23.20
2024-01-28T18:34:26.233Z,26.45
2024-01-28T18:36:53.165Z,29.30
2024-01-28T18:39:19.813Z,23.20
2024-01-28T18:41:46.384Z,22.77
2024-01-28T18:44:12.914Z,21.90
2024-01-28T18:46:39.505Z,23.13
2024-01-28T18:49:06.420Z,22.05
2024-01-28T18:51:33.241Z,21.50
2024-01-28T18:53:59.664Z,22.40
2024-01-28T18:56:26.097Z,23.38
2024-01-28T18:58:52.538Z,23.42
2024-01-28T19:01:20.578Z,24.88
2024-01-28T19:03:48.090Z,23.52
2024-01-28T19:06:15.701Z,24.40
2024-01-28T19:08:42.420Z,25.23
2024-01-28T19:11:09.054Z,26.75
2024-01-28T19:13:35.506Z,22.85
2024-01-28T19:16:02.610Z,24.65
2024-01-28T19:18:29.342Z,28.45
2024-01-28T19:20:56.309Z,30.05
2024-01-28T19:23:22.977Z,28.83
2024-01-28T19:25:49.562Z,29.58
2024-01-28T19:28:16.664Z,27.90
2024-01-28T19:30:43.088Z,26.80
2024-01-28T19:33:09.597Z,27.67
2024-01-28T19:35:40.645Z,25.77
2024-01-28T19:38:07.079Z,27.15
2024-01-28T19:40:33.521Z,25.98
2024-01-28T19:43:00.091Z,27.83
2024-01-28T19:45:26.576Z,29.52
2024-01-28T19:47:53.291Z,25.83
2024-01-28T19:50:19.770Z,27.77
2024-01-28T19:52:46.164Z,22.80
2024-01-28T19:55:12.613Z,22.83
2024-01-28T19:57:39.062Z,21.52
2024-01-28T20:00:06.428Z,19.58
2024-01-28T20:02:32.889Z,19.25
2024-01-28T20:04:59.467Z,19.10
2024-01-28T20:07:25.952Z,18.90
2024-01-28T20:09:59.631Z,19.13
2024-01-28T20:12:28.061Z,19.63
2024-01-28T20:14:54.792Z,20.25
2024-01-28T20:17:21.258Z,18.67
2024-01-28T20:19:47.770Z,19.15
2024-01-28T20:22:15.893Z,18.42
2024-01-28T20:24:43.819Z,18.98
2024-01-28T20:27:10.722Z,20.23
2024-01-28T20:29:37.174Z,18.40
2024-01-28T20:32:03.763Z,18.80
2024-01-28T20:34:30.241Z,19.42
2024-01-28T20:36:56.987Z,19.80
2024-01-28T20:39:25.475Z,19.15
2024-01-28T20:41:52.039Z,19.83
2024-01-28T20:44:18.587Z,20.17
2024-01-28T20:46:45.349Z,19.45
2024-01-28T20:49:12.962Z,20.35
2024-01-28T20:51:39.517Z,19.92
2024-01-28T20:54:05.980Z,19.52
2024-01-28T20:56:33.189Z,19.17
2024-01-28T20:58:59.631Z,20.08
2024-01-28T21:01:26.224Z,18.67
2024-01-28T21:03:53.501Z,19.60
2024-01-28T21:06:20.393Z,19.73
2024-01-28T21:08:47.070Z,19.42
2024-01-28T21:11:13.728Z,19.40
2024-01-28T21:13:40.163Z,19.45
2024-01-28T21:16:06.970Z,19.67
2024-01-28T21:18:33.941Z,19.48
2024-01-28T21:21:02.870Z,19.45
2024-01-28T21:23:29.306Z,20.65
2024-01-28T21:25:55.871Z,19.52
2024-01-28T21:28:22.512Z,19.40
2024-01-28T21:30:49.005Z,19.15
2024-01-28T21:33:19.114Z,19.65
2024-01-28T21:35:45.760Z,19.70
2024-01-28T21:38:12.275Z,20.33
2024-01-28T21:40:38.801Z,20.52
2024-01-28T21:43:05.246Z,20.02
2024-01-28T21:45:31.824Z,19.42
2024-01-28T21:47:58.315Z,20.45
2024-01-28T21:50:24.785Z,19.40
2024-01-28T21:52:51.150Z,19.83
2024-01-28T21:55:17.926Z,19.40
2024-01-28T21:57:45.640Z,19.02
2024-01-28T22:00:12.585Z,19.42
2024-01-28T22:02:40.099Z,19.90
2024-01-28T22:05:06.621Z,20.05
2024-01-28T22:07:33.178Z,19.70
2024-01-28T22:09:59.784Z,19.90
2024-01-28T22:12:27.633Z,20.42
2024-01-28T22:14:54.131Z,20.23
2024-01-28T22:17:20.542Z,20.00
2024-01-28T22:19:47.120Z,19.52
2024-01-28T22:22:13.500Z,19.63
2024-01-28T22:24:39.974Z,19.88
2024-01-28T22:27:06.435Z,19.80
2024-01-28T22:29:32.883Z,20.80
2024-01-28T22:31:59.447Z,20.83
2024-01-28T22:34:26.211Z,18.90
2024-01-28T22:36:52.767Z,20.45
2024-01-28T22:39:19.220Z,19.65
2024-01-28T22:41:45.690Z,20.23
2024-01-28T22:44:12.726Z,20.17
2024-01-28T22:46:39.168Z,19.38
2024-01-28T22:49:05.733Z,20.52
2024-01-28T22:51:32.233Z,19.25
2024-01-28T22:53:58.669Z,19.88
2024-01-28T22:56:25.167Z,19.15
2024-01-28T22:58:51.808Z,18.88
2024-01-28T23:01:19.407Z,18.90
2024-01-28T23:03:46.072Z,19.23
2024-01-28T23:06:18.546Z,18.73
2024-01-28T23:08:45.813Z,18.95
2024-01-28T23:11:12.812Z,19.25
2024-01-28T23:13:39.925Z,19.65
2024-01-28T23:16:06.895Z,18.92
2024-01-28T23:18:33.657Z,19.15
2024-01-28T23:21:00.828Z,19.30
2024-01-28T23:23:27.291Z,18.85
2024-01-28T23:25:53.764Z,19.67
2024-01-28T23:28:20.117Z,18.10
2024-01-28T23:30:47.515Z,19.30
2024-01-28T23:33:14.256Z,19.75
2024-01-28T23:35:40.706Z,20.63
2024-01-28T23:38:07.211Z,21.45
2024-01-28T23:40:33.764Z,20.17
2024-01-28T23:43:00.237Z,21.95
2024-01-28T23:45:26.863Z,21.38
2024-01-28T23:47:53.410Z,21.05
2024-01-28T23:50:21.957Z,21.67
2024-01-28T23:52:48.648Z,22.42
2024-01-28T23:55:15.313Z,21.58
2024-01-28T23:57:41.758Z,21.98
